createdAt,value
2023-10-02T00:00:32.335Z,11.52
2023-10-02T00:01:32.398Z,11.50
2023-10-02T00:02:32.449Z,11.50
2023-10-02T00:03:32.435Z,11.51
2023-10-02T00:04:32.367Z,11.52
2023-10-02T00:05:32.336Z,11.53
2023-10-02T00:06:32.351Z,11.51
2023-10-02T00:07:32.363Z,11.53
2023-10-02T00:08:32.380Z,11.51
2023-10-02T00:09:32.345Z,11.49
2023-10-02T00:10:32.379Z,11.48
2023-10-02T00:11:32.366Z,11.47
2023-10-02T00:12:32.346Z,11.46
2023-10-02T00:13:32.550Z,11.45
2023-10-02T00:14:32.333Z,11.44
2023-10-02T00:15:32.361Z,11.46
2023-10-02T00:16:32.422Z,11.45
2023-10-02T00:17:32.380Z,11.45
2023-10-02T00:18:32.382Z,11.41
2023-10-02T00:19:32.378Z,11.40
2023-10-02T00:20:32.334Z,11.34
2023-10-02T00:21:32.350Z,11.33
2023-10-02T00:22:32.525Z,11.31
2023-10-02T00:23:32.374Z,11.31
2023-10-02T00:24:32.360Z,11.30
2023-10-02T00:25:32.386Z,11.29
2023-10-02T00:26:32.351Z,11.27
2023-10-02T00:27:32.372Z,11.26
2023-10-02T00:28:32.394Z,11.24
2023-10-02T00:29:32.423Z,11.23
2023-10-02T00:30:32.362Z,11.24
2023-10-02T00:31:32.501Z,11.24
2023-10-02T00:32:32.493Z,11.23
2023-10-02T00:33:32.372Z,11.22
2023-10-02T00:34:32.398Z,11.21
2023-10-02T00:35:32.378Z,11.20
2023-10-02T00:36:32.388Z,11.19
2023-10-02T00:37:32.402Z,11.18
2023-10-02T00:38:32.390Z,11.17
2023-10-02T00:39:32.392Z,11.15
2023-10-02T00:40:32.589Z,11.15
2023-10-02T00:41:32.374Z,11.14
2023-10-02T00:42:32.375Z,11.13
2023-10-02T00:43:32.423Z,11.13
2023-10-02T00:44:32.426Z,11.13
2023-10-02T00:45:32.404Z,11.13
2023-10-02T00:46:32.457Z,11.14
2023-10-02T00:47:32.482Z,11.14
2023-10-02T00:48:32.415Z,11.16
2023-10-02T00:49:32.430Z,11.15
2023-10-02T00:50:32.419Z,11.14
2023-10-02T00:51:32.404Z,11.13
2023-10-02T00:52:32.424Z,11.13
2023-10-02T00:53:32.399Z,11.12
2023-10-02T00:54:32.402Z,11.11
2023-10-02T00:55:32.462Z,11.10
2023-10-02T00:56:32.400Z,11.10
2023-10-02T00:57:32.388Z,11.09
2023-10-02T00:58:32.398Z,11.10
2023-10-02T00:59:32.384Z,11.08
2023-10-02T01:00:32.491Z,11.07
2023-10-02T01:01:32.909Z,11.07
2023-10-02T01:02:32.487Z,11.05
2023-10-02T01:03:32.488Z,11.04
2023-10-02T01:04:32.454Z,11.04
2023-10-02T01:05:32.407Z,11.03
2023-10-02T01:06:32.435Z,11.02
2023-10-02T01:07:32.451Z,10.99
2023-10-02T01:08:32.415Z,11.00
2023-10-02T01:09:32.430Z,10.98
2023-10-02T01:10:32.420Z,10.98
2023-10-02T01:11:32.412Z,10.98
2023-10-02T01:12:32.436Z,10.96
2023-10-02T01:13:32.479Z,10.94
2023-10-02T01:14:32.402Z,10.92
2023-10-02T01:15:48.885Z,10.90
2023-10-02T01:16:32.526Z,10.89
2023-10-02T01:17:32.619Z,10.91
2023-10-02T01:18:32.500Z,10.90
2023-10-02T01:19:32.477Z,10.89
2023-10-02T01:20:32.419Z,10.87
2023-10-02T01:21:32.414Z,10.88
2023-10-02T01:22:32.462Z,10.89
2023-10-02T01:23:32.525Z,10.89
2023-10-02T01:24:32.427Z,10.89
2023-10-02T01:25:32.436Z,10.90
2023-10-02T01:26:32.431Z,10.91
2023-10-02T01:27:32.438Z,10.90
2023-10-02T01:28:32.463Z,10.88
2023-10-02T01:29:32.443Z,10.88
2023-10-02T01:30:32.472Z,10.86
2023-10-02T01:31:32.603Z,10.85
2023-10-02T01:32:32.472Z,10.83
2023-10-02T01:33:32.452Z,10.83
2023-10-02T01:34:32.581Z,10.81
2023-10-02T01:35:32.446Z,10.84
2023-10-02T01:36:32.434Z,10.82
2023-10-02T01:37:32.494Z,10.82
2023-10-02T01:38:32.464Z,10.79
2023-10-02T01:39:32.472Z,10.79
2023-10-02T01:40:32.467Z,10.77
2023-10-02T01:41:32.443Z,10.77
2023-10-02T01:42:32.453Z,10.77
2023-10-02T01:43:32.503Z,10.76
2023-10-02T01:44:34.776Z,10.74
2023-10-02T01:45:32.480Z,10.74
2023-10-02T01:46:32.542Z,10.72
2023-10-02T01:47:32.544Z,10.71
2023-10-02T01:48:32.449Z,10.70
2023-10-02T01:49:32.506Z,10.70
2023-10-02T01:50:32.463Z,10.71
2023-10-02T01:51:32.457Z,10.71
2023-10-02T01:52:49.593Z,10.70
2023-10-02T01:53:32.499Z,10.69
2023-10-02T01:54:32.470Z,10.68
2023-10-02T01:55:32.508Z,10.68
2023-10-02T01:56:32.457Z,10.65
2023-10-02T01:57:32.461Z,10.64
2023-10-02T01:58:32.484Z,10.62
2023-10-02T01:59:32.514Z,10.60
2023-10-02T02:00:32.536Z,10.60
2023-10-02T02:01:32.492Z,10.60
2023-10-02T02:02:32.583Z,10.60
2023-10-02T02:03:32.524Z,10.61
2023-10-02T02:04:32.477Z,10.63
2023-10-02T02:05:32.471Z,10.64
2023-10-02T02:06:32.451Z,10.64
2023-10-02T02:07:32.492Z,10.65
2023-10-02T02:08:32.456Z,10.64
2023-10-02T02:09:32.951Z,10.64
2023-10-02T02:10:32.544Z,10.63
2023-10-02T02:11:32.473Z,10.63
2023-10-02T02:12:32.476Z,10.62
2023-10-02T02:13:32.476Z,10.61
2023-10-02T02:14:32.482Z,10.60
2023-10-02T02:15:32.494Z,10.58
2023-10-02T02:16:32.600Z,10.57
2023-10-02T02:17:32.573Z,10.55
2023-10-02T02:18:32.484Z,10.53
2023-10-02T02:19:32.523Z,10.51
2023-10-02T02:20:32.489Z,10.56
2023-10-02T02:21:32.513Z,10.58
2023-10-02T02:22:32.984Z,10.59
2023-10-02T02:23:32.497Z,10.59
2023-10-02T02:24:32.490Z,10.59
2023-10-02T02:25:32.540Z,10.58
2023-10-02T02:26:32.507Z,10.58
2023-10-02T02:27:32.525Z,10.60
2023-10-02T02:28:32.555Z,10.58
2023-10-02T02:29:32.584Z,10.57
2023-10-02T02:30:32.487Z,10.57
2023-10-02T02:31:32.708Z,10.57
2023-10-02T02:32:32.553Z,10.57
2023-10-02T02:33:32.501Z,10.55
2023-10-02T02:34:32.531Z,10.53
2023-10-02T02:35:32.499Z,10.52
2023-10-02T02:36:32.525Z,10.51
2023-10-02T02:37:32.537Z,10.51
2023-10-02T02:38:32.517Z,10.49
2023-10-02T02:39:32.509Z,10.49
2023-10-02T02:40:32.555Z,10.48
2023-10-02T02:41:32.509Z,10.48
2023-10-02T02:42:32.525Z,10.47
2023-10-02T02:43:32.582Z,10.45
2023-10-02T02:44:32.513Z,10.45
2023-10-02T02:45:33.011Z,10.44
2023-10-02T02:46:32.588Z,10.42
2023-10-02T02:47:32.577Z,10.45
2023-10-02T02:48:32.516Z,10.45
2023-10-02T02:49:32.677Z,10.46
2023-10-02T02:50:32.494Z,10.46
2023-10-02T02:51:32.532Z,10.45
2023-10-02T02:52:32.536Z,10.44
2023-10-02T02:53:32.556Z,10.46
2023-10-02T02:54:32.521Z,10.45
2023-10-02T02:55:32.537Z,10.45
2023-10-02T02:56:32.541Z,-97.69
2023-10-02T02:57:32.529Z,10.46
2023-10-02T02:58:32.557Z,10.48
2023-10-02T02:59:32.572Z,10.50
2023-10-02T03:00:32.561Z,10.53
2023-10-02T03:01:33.624Z,10.57
2023-10-02T03:05:07.890Z,-144.28
2023-10-02T03:07:31.306Z,10.57
2023-10-02T03:20:00.684Z,-144.28
2023-10-02T03:23:41.120Z,-144.28
2023-10-02T03:24:41.105Z,10.50
2023-10-02T03:25:41.196Z,10.50
2023-10-02T03:26:41.127Z,10.51
2023-10-02T03:27:45.600Z,-144.28
2023-10-02T03:29:18.400Z,10.52
2023-10-02T03:30:18.404Z,-144.28
2023-10-02T03:32:04.423Z,10.51
2023-10-02T03:33:12.381Z,-144.28
2023-10-02T05:12:03.846Z,-144.28
2023-10-02T05:13:05.973Z,-97.69
2023-10-02T05:14:10.850Z,-97.69
2023-10-02T05:15:15.734Z,9.94
2023-10-02T05:16:28.433Z,-144.28
2023-10-02T05:20:44.873Z,-144.28
2023-10-02T05:23:40.980Z,-144.28
2023-10-02T05:26:59.926Z,-144.28
2023-10-02T05:28:00.242Z,9.85
2023-10-02T05:29:00.441Z,9.84
2023-10-02T05:30:00.593Z,-144.28
2023-10-02T05:31:00.677Z,9.79
2023-10-02T05:32:00.604Z,9.78
2023-10-02T05:33:00.640Z,9.75
2023-10-02T05:34:00.574Z,9.74
2023-10-02T05:35:00.700Z,9.73
2023-10-02T05:36:00.569Z,9.72
2023-10-02T05:37:00.611Z,9.71
2023-10-02T05:38:01.026Z,9.72
2023-10-02T05:39:00.804Z,9.71
2023-10-02T05:40:00.575Z,9.72
2023-10-02T05:41:00.625Z,9.71
2023-10-02T05:42:00.578Z,9.72
2023-10-02T05:43:00.676Z,9.72
2023-10-02T05:44:00.602Z,9.72
2023-10-02T05:45:00.614Z,9.72
2023-10-02T05:46:00.585Z,9.73
2023-10-02T05:47:00.640Z,9.72
2023-10-02T05:48:00.621Z,9.72
2023-10-02T05:49:00.751Z,9.73
2023-10-02T05:50:00.650Z,9.74
2023-10-02T05:51:00.667Z,9.75
2023-10-02T05:52:00.595Z,9.76
2023-10-02T05:53:00.657Z,9.77
2023-10-02T05:54:00.876Z,9.79
2023-10-02T05:55:00.596Z,9.80
2023-10-02T05:56:00.626Z,9.81
2023-10-02T05:57:00.599Z,9.81
2023-10-02T05:58:00.599Z,9.82
2023-10-02T05:59:00.937Z,9.84
2023-10-02T06:00:00.628Z,9.84
2023-10-02T06:01:00.640Z,9.86
2023-10-02T06:02:00.622Z,9.87
2023-10-02T06:03:02.993Z,9.88
2023-10-02T06:04:00.650Z,9.89
2023-10-02T06:05:00.699Z,9.91
2023-10-02T06:06:02.277Z,9.94
2023-10-02T06:07:00.604Z,9.97
2023-10-02T06:08:00.741Z,9.99
2023-10-02T06:09:00.727Z,10.02
2023-10-02T06:10:00.654Z,10.04
2023-10-02T06:11:00.650Z,10.05
2023-10-02T06:12:00.606Z,10.07
2023-10-02T06:13:00.620Z,10.09
2023-10-02T06:14:00.642Z,10.13
2023-10-02T06:15:00.641Z,10.15
2023-10-02T06:16:00.621Z,10.18
2023-10-02T06:17:00.689Z,10.21
2023-10-02T06:18:00.674Z,10.25
2023-10-02T06:19:00.787Z,10.28
2023-10-02T06:20:00.669Z,10.32
2023-10-02T06:21:00.653Z,10.35
2023-10-02T06:22:00.634Z,10.39
2023-10-02T06:23:00.677Z,10.41
2023-10-02T06:24:00.626Z,10.46
2023-10-02T06:25:00.646Z,10.48
2023-10-02T06:26:00.716Z,10.51
2023-10-02T06:27:00.629Z,10.55
2023-10-02T06:28:00.628Z,10.59
2023-10-02T06:29:00.957Z,10.63
2023-10-02T06:30:00.667Z,10.65
2023-10-02T06:31:00.670Z,10.68
2023-10-02T06:32:00.705Z,10.69
2023-10-02T06:33:00.784Z,10.71
2023-10-02T06:34:00.643Z,10.74
2023-10-02T06:35:00.703Z,10.79
2023-10-02T06:36:00.635Z,10.82
2023-10-02T06:37:00.638Z,10.85
2023-10-02T06:38:00.652Z,10.89
2023-10-02T06:39:01.011Z,10.93
2023-10-02T06:40:00.655Z,10.96
2023-10-02T06:41:00.788Z,10.99
2023-10-02T06:42:00.640Z,11.01
2023-10-02T06:43:00.661Z,11.04
2023-10-02T06:44:00.733Z,11.08
2023-10-02T06:45:00.646Z,11.11
2023-10-02T06:46:00.632Z,11.14
2023-10-02T06:47:00.774Z,11.18
2023-10-02T06:48:00.683Z,11.21
2023-10-02T06:49:00.814Z,11.24
2023-10-02T06:50:00.784Z,11.29
2023-10-02T06:51:00.820Z,11.30
2023-10-02T06:52:00.678Z,11.33
2023-10-02T06:53:00.876Z,11.35
2023-10-02T06:54:00.688Z,11.40
2023-10-02T06:55:00.711Z,11.42
2023-10-02T06:56:00.734Z,11.45
2023-10-02T06:57:00.711Z,11.48
2023-10-02T06:58:00.763Z,11.50
2023-10-02T06:59:00.861Z,11.52
2023-10-02T07:01:03.570Z,11.59
2023-10-02T07:02:04.043Z,11.62
2023-10-02T07:03:03.665Z,11.66
2023-10-02T07:04:03.579Z,11.70
2023-10-02T07:05:03.589Z,11.75
2023-10-02T07:06:03.566Z,11.79
2023-10-02T07:07:03.573Z,11.82
2023-10-02T07:08:03.651Z,11.86
2023-10-02T07:09:03.600Z,11.91
2023-10-02T07:10:03.576Z,11.96
2023-10-02T07:11:03.629Z,11.99
2023-10-02T07:12:03.577Z,12.03
2023-10-02T07:13:03.576Z,12.08
2023-10-02T07:14:03.642Z,12.13
2023-10-02T07:15:03.604Z,12.18
2023-10-02T07:16:03.674Z,12.22
2023-10-02T07:17:03.714Z,12.27
2023-10-02T07:18:03.641Z,12.31
2023-10-02T07:19:03.699Z,12.36
2023-10-02T07:20:03.668Z,12.40
2023-10-02T07:21:03.634Z,12.46
2023-10-02T07:22:03.584Z,12.50
2023-10-02T07:23:03.652Z,12.55
2023-10-02T07:24:03.685Z,12.59
2023-10-02T07:25:03.618Z,12.62
2023-10-02T07:26:03.668Z,12.66
2023-10-02T07:27:03.612Z,12.72
2023-10-02T07:28:03.616Z,12.74
2023-10-02T07:29:03.865Z,12.78
2023-10-02T07:30:03.612Z,12.81
2023-10-02T07:31:03.624Z,12.84
2023-10-02T07:32:03.693Z,12.87
2023-10-02T07:33:03.694Z,12.91
2023-10-02T07:34:03.617Z,12.95
2023-10-02T07:35:03.713Z,12.98
2023-10-02T07:36:03.752Z,13.03
2023-10-02T07:37:03.804Z,13.07
2023-10-02T07:38:03.845Z,13.12
2023-10-02T07:39:03.929Z,13.15
2023-10-02T07:40:03.793Z,13.20
2023-10-02T07:41:03.862Z,13.24
2023-10-02T07:42:03.838Z,13.29
2023-10-02T07:43:03.848Z,13.34
2023-10-02T07:44:03.901Z,13.37
2023-10-02T07:45:03.857Z,13.42
2023-10-02T07:46:04.243Z,13.47
2023-10-02T07:47:03.941Z,13.49
2023-10-02T07:48:03.949Z,13.55
2023-10-02T07:49:04.160Z,13.59
2023-10-02T07:50:03.978Z,13.62
2023-10-02T07:51:03.969Z,13.68
2023-10-02T07:52:03.969Z,13.70
2023-10-02T07:53:04.028Z,13.75
2023-10-02T07:54:03.984Z,13.78
2023-10-02T07:55:03.988Z,13.82
2023-10-02T07:56:04.021Z,13.87
2023-10-02T07:57:04.013Z,13.94
2023-10-02T07:58:04.039Z,14.03
2023-10-02T07:59:04.386Z,14.10
2023-10-02T08:00:04.041Z,14.16
2023-10-02T08:01:04.049Z,14.20
2023-10-02T08:02:04.160Z,14.25
2023-10-02T08:03:04.269Z,14.30
2023-10-02T08:04:04.249Z,14.37
2023-10-02T08:05:04.126Z,14.44
2023-10-02T08:06:04.113Z,14.51
2023-10-02T08:07:06.136Z,14.57
2023-10-02T08:08:04.208Z,14.66
2023-10-02T08:09:04.127Z,14.73
2023-10-02T08:10:04.138Z,14.77
2023-10-02T08:11:04.195Z,14.82
2023-10-02T08:12:04.132Z,14.87
2023-10-02T08:13:04.165Z,14.92
2023-10-02T08:14:04.209Z,14.95
2023-10-02T08:15:04.180Z,15.00
2023-10-02T08:16:10.641Z,-144.28
2023-10-02T08:17:13.902Z,-144.28
2023-10-02T08:18:24.673Z,-144.28
2023-10-02T08:19:25.655Z,15.10
2023-10-02T08:20:43.584Z,-97.69
2023-10-02T08:22:03.314Z,-144.28
2023-10-02T08:23:04.048Z,-144.28
2023-10-02T08:24:04.015Z,-144.28
2023-10-02T08:25:10.835Z,-144.28
2023-10-02T08:26:27.392Z,15.30
2023-10-02T08:31:12.168Z,15.35
2023-10-02T08:32:12.162Z,-144.28
2023-10-02T08:33:27.448Z,-144.28
2023-10-02T08:34:15.600Z,15.62
2023-10-02T08:35:14.711Z,15.69
2023-10-02T08:36:14.610Z,15.76
2023-10-02T08:37:15.022Z,-144.28
2023-10-02T08:38:21.612Z,-144.28
2023-10-02T08:39:21.740Z,-144.28
2023-10-02T08:40:21.572Z,16.04
2023-10-02T08:41:21.622Z,16.10
2023-10-02T08:42:21.590Z,16.16
2023-10-02T08:43:21.598Z,16.24
2023-10-02T08:44:21.738Z,16.28
2023-10-02T08:45:21.588Z,16.32
2023-10-02T08:46:21.715Z,16.39
2023-10-02T08:47:34.324Z,-144.28
2023-10-02T08:48:34.264Z,-144.27
2023-10-02T08:49:34.240Z,16.52
2023-10-02T08:50:34.260Z,16.55
2023-10-02T08:51:34.301Z,16.61
2023-10-02T08:52:34.276Z,16.65
2023-10-02T08:53:34.276Z,16.68
2023-10-02T08:54:34.291Z,16.74
2023-10-02T08:55:34.283Z,16.79
2023-10-02T08:56:34.307Z,16.83
2023-10-02T08:57:34.266Z,16.88
2023-10-02T08:58:34.284Z,16.91
2023-10-02T08:59:34.329Z,16.95
2023-10-02T09:00:34.254Z,16.99
2023-10-02T09:01:34.327Z,17.03
2023-10-02T09:02:34.322Z,17.08
2023-10-02T09:03:34.383Z,17.15
2023-10-02T09:04:34.291Z,17.23
2023-10-02T09:05:34.351Z,17.29
2023-10-02T09:06:34.305Z,17.35
2023-10-02T09:07:34.293Z,17.40
2023-10-02T09:08:34.295Z,17.49
2023-10-02T09:09:34.288Z,17.58
2023-10-02T09:10:34.294Z,17.67
2023-10-02T09:11:34.284Z,17.75
2023-10-02T09:12:34.302Z,17.83
2023-10-02T09:13:34.307Z,17.92
2023-10-02T09:14:34.460Z,17.98
2023-10-02T09:15:34.924Z,18.02
2023-10-02T09:16:34.394Z,18.06
2023-10-02T09:17:34.396Z,18.09
2023-10-02T09:18:34.313Z,18.13
2023-10-02T09:19:34.310Z,18.15
2023-10-02T09:20:34.289Z,18.18
2023-10-02T09:21:34.306Z,18.22
2023-10-02T09:22:34.343Z,18.25
2023-10-02T09:23:34.296Z,18.28
2023-10-02T09:24:34.327Z,18.31
2023-10-02T09:25:34.325Z,18.35
2023-10-02T09:26:34.397Z,18.41
2023-10-02T09:27:34.319Z,18.49
2023-10-02T09:28:34.344Z,18.57
2023-10-02T09:29:34.352Z,18.64
2023-10-02T09:30:34.311Z,18.69
2023-10-02T09:31:34.605Z,18.74
2023-10-02T09:32:34.408Z,18.83
2023-10-02T09:33:39.155Z,18.95
2023-10-02T09:35:08.844Z,19.07
2023-10-02T09:35:58.379Z,19.18
2023-10-02T09:37:08.492Z,19.30
2023-10-02T09:38:04.582Z,19.38
2023-10-02T09:38:34.517Z,19.45
2023-10-02T09:39:34.378Z,19.50
2023-10-02T09:40:34.397Z,19.52
2023-10-02T09:41:34.330Z,19.55
2023-10-02T09:42:34.355Z,19.60
2023-10-02T09:43:34.409Z,19.71
2023-10-02T09:44:34.379Z,19.79
2023-10-02T09:45:34.375Z,19.91
2023-10-02T09:46:34.346Z,20.04
2023-10-02T09:47:34.382Z,20.18
2023-10-02T09:48:34.382Z,20.32
2023-10-02T09:49:34.324Z,20.46
2023-10-02T09:50:34.418Z,20.56
2023-10-02T09:51:34.345Z,20.68
2023-10-02T09:52:34.376Z,20.80
2023-10-02T09:53:34.341Z,20.93
2023-10-02T09:54:34.337Z,21.07
2023-10-02T09:55:34.350Z,21.18
2023-10-02T09:56:34.348Z,21.28
2023-10-02T09:57:34.369Z,21.38
2023-10-02T09:58:34.367Z,21.46
2023-10-02T09:59:34.358Z,21.52
2023-10-02T10:00:34.363Z,21.63
2023-10-02T10:01:34.468Z,21.75
2023-10-02T10:02:34.476Z,21.87
2023-10-02T10:03:34.421Z,21.98
2023-10-02T10:04:34.392Z,22.08
2023-10-02T10:05:34.363Z,22.16
2023-10-02T10:06:34.365Z,22.27
2023-10-02T10:07:34.379Z,22.36
2023-10-02T10:08:34.391Z,22.46
2023-10-02T10:09:34.374Z,22.50
2023-10-02T10:10:34.363Z,22.54
2023-10-02T10:11:34.368Z,22.64
2023-10-02T10:12:34.405Z,22.84
2023-10-02T10:13:34.372Z,23.17
2023-10-02T10:14:34.380Z,23.59
2023-10-02T10:15:34.394Z,23.92
2023-10-02T10:16:34.399Z,24.09
2023-10-02T10:17:34.462Z,24.18
2023-10-02T10:18:34.396Z,24.25
2023-10-02T10:19:34.422Z,24.29
2023-10-02T10:20:34.443Z,24.30
2023-10-02T10:21:34.405Z,24.31
2023-10-02T10:22:34.407Z,24.24
2023-10-02T10:23:34.382Z,24.26
2023-10-02T10:24:34.410Z,24.33
2023-10-02T10:25:34.824Z,24.40
2023-10-02T10:26:34.408Z,24.48
2023-10-02T10:27:34.420Z,24.61
2023-10-02T10:28:34.412Z,24.81
2023-10-02T10:29:34.474Z,25.17
2023-10-02T10:30:36.432Z,25.66
2023-10-02T10:31:34.482Z,26.25
2023-10-02T10:32:34.480Z,26.77
2023-10-02T10:33:34.450Z,27.28
2023-10-02T10:34:34.430Z,27.58
2023-10-02T10:35:34.585Z,27.61
2023-10-02T10:36:34.409Z,27.46
2023-10-02T10:37:34.434Z,27.44
2023-10-02T10:38:34.423Z,27.51
2023-10-02T10:39:34.412Z,27.53
2023-10-02T10:40:34.417Z,27.33
2023-10-02T10:41:34.499Z,27.00
2023-10-02T10:42:34.457Z,26.82
2023-10-02T10:43:34.428Z,26.63
2023-10-02T10:44:34.496Z,26.62
2023-10-02T10:45:34.744Z,26.63
2023-10-02T10:46:34.430Z,26.66
2023-10-02T10:47:34.550Z,26.76
2023-10-02T10:48:34.467Z,26.88
2023-10-02T10:49:34.441Z,26.87
2023-10-02T10:50:34.449Z,27.00
2023-10-02T10:51:34.506Z,27.25
2023-10-02T10:52:34.441Z,27.55
2023-10-02T10:53:34.441Z,27.68
2023-10-02T10:54:38.755Z,27.74
2023-10-02T10:55:34.472Z,27.95
2023-10-02T10:56:34.466Z,28.08
2023-10-02T10:57:34.463Z,28.21
2023-10-02T10:58:34.488Z,28.40
2023-10-02T10:59:34.458Z,28.43
2023-10-02T11:00:34.457Z,28.48
2023-10-02T11:01:34.465Z,28.63
2023-10-02T11:02:34.477Z,28.46
2023-10-02T11:03:34.573Z,28.42
2023-10-02T11:04:34.475Z,28.37
2023-10-02T11:05:34.650Z,28.16
2023-10-02T11:06:34.454Z,28.23
2023-10-02T11:07:34.469Z,28.21
2023-10-02T11:08:34.563Z,28.24
2023-10-02T11:09:34.495Z,28.20
2023-10-02T11:10:34.483Z,28.21
2023-10-02T11:11:34.508Z,28.16
2023-10-02T11:12:34.465Z,28.12
2023-10-02T11:13:34.476Z,27.95
2023-10-02T11:14:34.539Z,28.06
2023-10-02T11:15:34.498Z,28.40
2023-10-02T11:16:34.524Z,28.85
2023-10-02T11:17:34.620Z,29.18
2023-10-02T11:18:34.510Z,29.11
2023-10-02T11:19:34.489Z,29.05
2023-10-02T11:20:34.546Z,29.05
2023-10-02T11:21:34.512Z,29.06
2023-10-02T11:22:34.500Z,29.15
2023-10-02T11:23:34.571Z,29.27
2023-10-02T11:24:34.489Z,29.25
2023-10-02T11:25:34.496Z,28.99
2023-10-02T11:26:34.472Z,28.83
2023-10-02T11:27:34.509Z,28.62
2023-10-02T11:28:34.558Z,28.40
2023-10-02T11:29:34.528Z,28.24
2023-10-02T11:30:34.515Z,28.00
2023-10-02T11:31:34.534Z,27.82
2023-10-02T11:32:34.548Z,27.65
2023-10-02T11:33:34.502Z,27.59
2023-10-02T11:34:34.529Z,27.62
2023-10-02T11:35:34.548Z,27.60
2023-10-02T11:36:34.482Z,27.40
2023-10-02T11:37:34.510Z,27.27
2023-10-02T11:38:34.538Z,27.26
2023-10-02T11:39:34.526Z,27.21
2023-10-02T11:40:34.555Z,27.24
2023-10-02T11:41:36.785Z,27.44
2023-10-02T11:42:34.520Z,27.70
2023-10-02T11:43:34.530Z,27.88
2023-10-02T11:44:34.569Z,27.99
2023-10-02T11:45:34.526Z,28.02
2023-10-02T11:46:34.539Z,28.10
2023-10-02T11:47:34.587Z,28.11
2023-10-02T11:48:34.618Z,28.11
2023-10-02T11:49:34.554Z,28.10
2023-10-02T11:50:34.607Z,28.19
2023-10-02T11:51:34.523Z,28.24
2023-10-02T11:52:34.544Z,28.41
2023-10-02T11:53:34.589Z,28.54
2023-10-02T11:54:34.607Z,28.54
2023-10-02T11:55:34.581Z,28.56
2023-10-02T11:56:34.615Z,28.61
2023-10-02T11:57:34.536Z,28.73
2023-10-02T11:58:34.557Z,28.91
2023-10-02T11:59:34.621Z,28.93
2023-10-02T12:00:34.689Z,28.87
2023-10-02T12:01:34.540Z,28.75
2023-10-02T12:02:34.622Z,28.80
2023-10-02T12:03:34.657Z,28.95
2023-10-02T12:04:34.544Z,29.17
2023-10-02T12:05:34.619Z,29.32
2023-10-02T12:06:34.569Z,29.30
2023-10-02T12:07:34.586Z,29.24
2023-10-02T12:08:34.619Z,29.18
2023-10-02T12:09:34.581Z,29.28
2023-10-02T12:10:34.578Z,29.51
2023-10-02T12:11:34.586Z,29.66
2023-10-02T12:12:34.555Z,29.68
2023-10-02T12:13:34.562Z,29.74
2023-10-02T12:14:34.637Z,29.87
2023-10-02T12:15:34.626Z,29.95
2023-10-02T12:16:34.591Z,29.93
2023-10-02T12:17:34.628Z,29.76
2023-10-02T12:18:34.594Z,29.60
2023-10-02T12:19:34.587Z,29.47
2023-10-02T12:20:34.627Z,29.44
2023-10-02T12:21:34.593Z,29.42
2023-10-02T12:22:34.597Z,29.47
2023-10-02T12:23:34.636Z,29.64
2023-10-02T12:24:34.617Z,29.76
2023-10-02T12:25:34.579Z,29.87
2023-10-02T12:26:34.585Z,29.95
2023-10-02T12:27:34.622Z,30.04
2023-10-02T12:28:34.619Z,30.19
2023-10-02T12:29:34.666Z,30.34
2023-10-02T12:30:34.592Z,30.35
2023-10-02T12:31:34.592Z,30.19
2023-10-02T12:32:34.717Z,30.04
2023-10-02T12:33:34.636Z,29.98
2023-10-02T12:34:34.864Z,30.01
2023-10-02T12:35:34.675Z,30.18
2023-10-02T12:36:34.586Z,30.39
2023-10-02T12:37:34.622Z,30.74
2023-10-02T12:38:34.654Z,31.07
2023-10-02T12:39:34.659Z,31.02
2023-10-02T12:40:34.624Z,30.52
2023-10-02T12:41:34.648Z,30.00
2023-10-02T12:42:34.616Z,29.67
2023-10-02T12:43:34.630Z,29.63
2023-10-02T12:44:34.645Z,29.80
2023-10-02T12:45:34.647Z,29.99
2023-10-02T12:46:34.692Z,29.92
2023-10-02T12:47:34.667Z,29.87
2023-10-02T12:48:34.675Z,30.06
2023-10-02T12:49:34.628Z,30.23
2023-10-02T12:50:34.680Z,30.36
2023-10-02T12:51:34.656Z,30.46
2023-10-02T12:52:34.621Z,30.49
2023-10-02T12:53:34.667Z,30.69
2023-10-02T12:54:34.646Z,30.84
2023-10-02T12:55:34.648Z,30.78
2023-10-02T12:56:34.701Z,30.61
2023-10-02T12:57:34.632Z,30.35
2023-10-02T12:58:34.637Z,30.34
2023-10-02T12:59:34.685Z,30.54
2023-10-02T13:00:34.755Z,30.76
2023-10-02T13:01:34.651Z,31.01
2023-10-02T13:02:34.746Z,31.21
2023-10-02T13:03:34.728Z,31.23
2023-10-02T13:04:34.656Z,30.92
2023-10-02T13:05:34.712Z,30.68
2023-10-02T13:06:34.711Z,30.40
2023-10-02T13:07:34.655Z,30.39
2023-10-02T13:08:34.717Z,30.58
2023-10-02T13:09:34.671Z,30.69
2023-10-02T13:10:34.657Z,30.77
2023-10-02T13:11:34.761Z,30.97
2023-10-02T13:12:34.683Z,30.91
2023-10-02T13:13:34.669Z,30.45
2023-10-02T13:14:34.829Z,30.13
2023-10-02T13:15:34.665Z,30.10
2023-10-02T13:16:34.670Z,30.12
2023-10-02T13:17:34.739Z,29.74
2023-10-02T13:18:34.681Z,29.57
2023-10-02T13:19:34.718Z,29.42
2023-10-02T13:20:34.697Z,29.26
2023-10-02T13:21:34.685Z,29.16
2023-10-02T13:22:34.700Z,29.13
2023-10-02T13:23:34.754Z,29.09
2023-10-02T13:24:34.680Z,28.98
2023-10-02T13:25:34.697Z,28.90
2023-10-02T13:26:34.731Z,29.01
2023-10-02T13:27:34.676Z,29.13
2023-10-02T13:28:34.698Z,29.24
2023-10-02T13:29:34.782Z,29.20
2023-10-02T13:30:34.740Z,28.87
2023-10-02T13:31:34.698Z,28.73
2023-10-02T13:32:34.808Z,28.70
2023-10-02T13:33:34.694Z,28.74
2023-10-02T13:34:34.705Z,28.78
2023-10-02T13:35:34.717Z,28.81
2023-10-02T13:36:35.225Z,28.76
2023-10-02T13:37:34.679Z,28.64
2023-10-02T13:38:34.767Z,28.56
2023-10-02T13:39:34.734Z,28.42
2023-10-02T13:40:34.711Z,28.37
2023-10-02T13:41:34.817Z,28.36
2023-10-02T13:42:34.715Z,28.42
2023-10-02T13:43:34.703Z,28.45
2023-10-02T13:44:34.740Z,28.29
2023-10-02T13:45:34.693Z,28.10
2023-10-02T13:46:34.787Z,28.03
2023-10-02T13:47:37.526Z,27.92
2023-10-02T13:48:34.844Z,27.95
2023-10-02T13:49:34.769Z,28.06
2023-10-02T13:50:36.098Z,28.12
2023-10-02T13:51:34.751Z,28.24
2023-10-02T13:52:34.724Z,28.37
2023-10-02T13:53:34.742Z,28.52
2023-10-02T13:54:34.756Z,28.75
2023-10-02T13:55:34.742Z,28.73
2023-10-02T13:56:35.225Z,28.59
2023-10-02T13:57:34.746Z,28.47
2023-10-02T13:58:34.745Z,28.34
2023-10-02T13:59:34.775Z,28.22
2023-10-02T14:00:34.762Z,28.05
2023-10-02T14:01:35.256Z,27.85
2023-10-02T14:02:34.741Z,27.77
2023-10-02T14:03:34.750Z,27.82
2023-10-02T14:04:34.796Z,27.94
2023-10-02T14:05:34.798Z,28.10
2023-10-02T14:06:34.768Z,28.30
2023-10-02T14:07:34.738Z,28.42
2023-10-02T14:08:34.794Z,28.46
2023-10-02T14:09:34.756Z,28.53
2023-10-02T14:10:34.789Z,28.56
2023-10-02T14:11:34.820Z,28.51
2023-10-02T14:12:34.766Z,28.42
2023-10-02T14:13:34.751Z,28.29
2023-10-02T14:14:34.812Z,28.13
2023-10-02T14:15:34.761Z,28.03
2023-10-02T14:16:34.778Z,27.90
2023-10-02T14:17:34.827Z,27.82
2023-10-02T14:18:34.843Z,27.85
2023-10-02T14:19:42.644Z,27.91
2023-10-02T14:20:34.836Z,27.99
2023-10-02T14:21:34.764Z,28.13
2023-10-02T14:22:34.775Z,28.16
2023-10-02T14:23:34.784Z,28.13
2023-10-02T14:24:34.804Z,28.07
2023-10-02T14:25:34.793Z,27.99
2023-10-02T14:26:34.800Z,27.95
2023-10-02T14:27:34.797Z,27.80
2023-10-02T14:28:34.778Z,27.66
2023-10-02T14:29:34.794Z,27.55
2023-10-02T14:30:34.834Z,27.43
2023-10-02T14:31:34.795Z,27.26
2023-10-02T14:32:34.817Z,27.13
2023-10-02T14:33:35.456Z,27.03
2023-10-02T14:34:34.791Z,26.94
2023-10-02T14:35:50.995Z,26.88
2023-10-02T14:36:35.042Z,26.81
2023-10-02T14:37:34.797Z,26.76
2023-10-02T14:38:34.826Z,26.65
2023-10-02T14:39:34.790Z,26.60
2023-10-02T14:40:34.770Z,26.55
2023-10-02T14:41:34.864Z,26.51
2023-10-02T14:42:34.806Z,26.51
2023-10-02T14:43:34.834Z,26.55
2023-10-02T14:44:34.832Z,26.60
2023-10-02T14:45:34.796Z,26.64
2023-10-02T14:46:34.841Z,26.61
2023-10-02T14:47:34.915Z,26.57
2023-10-02T14:48:46.190Z,26.60
2023-10-02T14:49:34.806Z,26.63
2023-10-02T14:50:34.867Z,26.62
2023-10-02T14:51:34.834Z,26.59
2023-10-02T14:52:34.834Z,26.55
2023-10-02T14:53:34.835Z,26.52
2023-10-02T14:54:34.850Z,26.47
2023-10-02T14:55:34.838Z,26.46
2023-10-02T14:56:34.856Z,26.45
2023-10-02T14:57:34.824Z,26.45
2023-10-02T14:58:34.834Z,26.49
2023-10-02T14:59:34.924Z,26.53
2023-10-02T15:00:34.864Z,26.55
2023-10-02T15:01:34.840Z,26.53
2023-10-02T15:02:34.955Z,26.52
2023-10-02T15:03:34.876Z,26.49
2023-10-02T15:04:34.852Z,26.44